createdAt,value
2018-05-23T00:01:30.175Z,8.17
2018-05-23T00:03:57.665Z,8.40
2018-05-23T00:06:25.172Z,9.70
2018-05-23T00:08:52.717Z,8.80
2018-05-23T00:11:20.981Z,9.40
2018-05-23T00:13:49.294Z,8.30
2018-05-23T00:16:16.797Z,8.07
2018-05-23T00:18:44.380Z,8.40
2018-05-23T00:21:12.654Z,8.00
2018-05-23T00:23:40.211Z,13.67
2018-05-23T00:26:08.489Z,10.07
2018-05-23T00:28:36.758Z,9.27
2018-05-23T00:31:11.488Z,9.00
2018-05-23T00:33:39.788Z,8.93
2018-05-23T00:36:07.295Z,9.20
2018-05-23T00:38:34.781Z,8.40
2018-05-23T00:41:03.052Z,9.17
2018-05-23T00:43:30.994Z,8.40
2018-05-23T00:45:58.508Z,9.93
2018-05-23T00:48:26.018Z,9.33
2018-05-23T00:50:53.722Z,8.73
2018-05-23T00:53:21.974Z,11.73
2018-05-23T00:55:49.508Z,10.53
2018-05-23T00:58:17.128Z,10.10
2018-05-23T01:00:44.670Z,11.23
2018-05-23T01:03:13.060Z,10.20
2018-05-23T01:05:40.612Z,10.07
2018-05-23T01:08:09.025Z,9.10
2018-05-23T01:10:36.527Z,13.73
2018-05-23T01:13:04.164Z,11.20
2018-05-23T01:15:31.678Z,9.47
2018-05-23T01:17:59.232Z,9.50
2018-05-23T01:20:27.613Z,9.47
2018-05-23T01:22:55.133Z,9.97
2018-05-23T01:25:22.614Z,8.80
2018-05-23T01:27:50.932Z,10.20
2018-05-23T01:30:18.425Z,9.80
2018-05-23T01:32:45.949Z,13.37
2018-05-23T01:35:13.482Z,18.47
2018-05-23T01:37:40.980Z,12.30
2018-05-23T01:40:08.630Z,13.27
2018-05-23T01:42:36.121Z,12.50
2018-05-23T01:45:03.716Z,10.93
2018-05-23T01:47:32.092Z,9.70
2018-05-23T01:50:00.364Z,9.07
2018-05-23T01:52:28.654Z,9.37
2018-05-23T01:54:56.172Z,10.03
2018-05-23T01:57:23.789Z,10.90
2018-05-23T01:59:51.363Z,10.50
2018-05-23T02:02:18.881Z,10.37
2018-05-23T02:04:47.190Z,11.30
2018-05-23T02:07:14.708Z,11.30
2018-05-23T02:09:43.012Z,12.10
2018-05-23T02:12:10.531Z,12.00
2018-05-23T02:14:38.038Z,11.63
2018-05-23T02:17:05.612Z,11.40
2018-05-23T02:19:33.122Z,12.57
2018-05-23T02:22:01.534Z,12.07
2018-05-23T02:24:29.065Z,10.77
2018-05-23T02:26:57.372Z,10.80
2018-05-23T02:29:26.295Z,11.43
2018-05-23T02:31:53.892Z,10.70
2018-05-23T02:34:21.448Z,10.03
2018-05-23T02:36:49.734Z,10.87
2018-05-23T02:39:17.301Z,12.30
2018-05-23T02:41:44.794Z,11.60
2018-05-23T02:44:12.300Z,11.23
2018-05-23T02:46:40.574Z,11.17
2018-05-23T02:49:08.954Z,10.70
2018-05-23T02:51:37.215Z,9.40
2018-05-23T02:54:05.492Z,8.83
2018-05-23T02:56:33.786Z,9.60
2018-05-23T02:59:02.063Z,10.30
2018-05-23T03:01:29.575Z,9.53
2018-05-23T03:04:02.263Z,9.03
2018-05-23T03:06:29.779Z,9.20
2018-05-23T03:08:57.302Z,10.20
2018-05-23T03:11:25.594Z,9.60
2018-05-23T03:13:53.971Z,9.87
2018-05-23T03:16:22.361Z,10.83
2018-05-23T03:18:49.878Z,10.50
2018-05-23T03:21:17.401Z,11.50
2018-05-23T03:23:45.001Z,11.30
2018-05-23T03:26:12.504Z,10.97
2018-05-23T03:28:40.016Z,12.63
2018-05-23T03:31:07.534Z,12.50
2018-05-23T03:33:35.032Z,11.97
2018-05-23T03:36:02.537Z,11.10
2018-05-23T03:38:30.060Z,10.83
2018-05-23T03:40:57.639Z,10.30
2018-05-23T03:43:25.904Z,10.20
2018-05-23T03:45:54.234Z,11.70
2018-05-23T03:48:21.748Z,11.47
2018-05-23T03:50:50.004Z,11.13
2018-05-23T03:53:17.536Z,11.70
2018-05-23T03:55:45.044Z,11.20
2018-05-23T03:58:13.414Z,10.00
2018-05-23T04:00:53.523Z,10.93
2018-05-23T04:03:33.014Z,11.07
2018-05-23T04:06:12.376Z,10.77
2018-05-23T04:08:39.903Z,11.67
2018-05-23T04:11:08.161Z,10.97
2018-05-23T04:13:36.437Z,11.53
2018-05-23T04:16:03.992Z,12.90
2018-05-23T04:18:31.480Z,12.10
2018-05-23T04:20:59.307Z,12.70
2018-05-23T04:23:26.956Z,11.50
2018-05-23T04:25:54.468Z,12.50
2018-05-23T04:28:22.640Z,12.70
2018-05-23T04:30:50.970Z,18.00
2018-05-23T04:33:18.526Z,17.90
2018-05-23T04:35:46.234Z,14.90
2018-05-23T04:38:13.771Z,21.23
2018-05-23T04:40:41.328Z,19.80
2018-05-23T04:43:08.868Z,14.60
2018-05-23T04:45:36.400Z,15.97
2018-05-23T04:48:04.644Z,15.80
2018-05-23T04:50:33.113Z,14.13
2018-05-23T04:53:01.504Z,11.20
2018-05-23T04:55:29.775Z,10.57
2018-05-23T04:57:58.445Z,10.23
2018-05-23T05:00:26.016Z,11.20
2018-05-23T05:02:54.299Z,11.93
2018-05-23T05:05:22.578Z,12.70
2018-05-23T05:07:50.089Z,13.57
2018-05-23T05:10:17.684Z,13.87
2018-05-23T05:12:45.955Z,12.57
2018-05-23T05:15:14.554Z,11.53
2018-05-23T05:17:42.841Z,11.53
2018-05-23T05:20:10.355Z,12.60
2018-05-23T05:22:38.078Z,11.17
2018-05-23T05:25:05.597Z,11.60
2018-05-23T05:27:33.880Z,12.10
2018-05-23T05:30:02.160Z,11.07
2018-05-23T05:32:30.751Z,11.10
2018-05-23T05:34:59.000Z,11.03
2018-05-23T05:37:27.270Z,10.57
2018-05-23T05:39:54.844Z,10.97
2018-05-23T05:42:23.112Z,11.63
2018-05-23T05:44:50.632Z,11.43
2018-05-23T05:47:18.160Z,11.60
2018-05-23T05:49:45.694Z,10.80
2018-05-23T05:52:13.258Z,11.73
2018-05-23T05:54:41.639Z,12.33
2018-05-23T05:57:14.499Z,13.43
2018-05-23T05:59:42.019Z,12.43
2018-05-23T06:02:09.544Z,13.53
2018-05-23T06:04:37.072Z,15.00
2018-05-23T06:07:04.634Z,14.87
2018-05-23T06:09:32.251Z,13.80
2018-05-23T06:11:59.776Z,13.87
2018-05-23T06:14:28.056Z,14.50
2018-05-23T06:16:56.318Z,15.70
2018-05-23T06:19:23.886Z,17.17
2018-05-23T06:21:52.164Z,21.23
2018-05-23T06:24:20.437Z,21.20
2018-05-23T06:26:48.712Z,17.17
2018-05-23T06:29:16.984Z,20.60
2018-05-23T06:31:44.760Z,20.23
2018-05-23T06:34:13.123Z,17.57
2018-05-23T06:36:41.413Z,20.87
2018-05-23T06:39:08.919Z,21.50
2018-05-23T06:41:36.437Z,19.37
2018-05-23T06:44:03.996Z,19.63
2018-05-23T06:46:32.268Z,23.17
2018-05-23T06:49:00.646Z,22.00
2018-05-23T06:51:28.900Z,21.63
2018-05-23T06:53:56.476Z,22.77
2018-05-23T06:56:24.755Z,23.93
2018-05-23T06:58:53.044Z,22.60
2018-05-23T07:01:20.585Z,26.03
2018-05-23T07:03:48.889Z,26.57
2018-05-23T07:06:16.533Z,26.77
2018-05-23T07:08:44.949Z,24.77
2018-05-23T07:11:12.530Z,21.53
2018-05-23T07:13:39.956Z,23.37
2018-05-23T07:16:07.627Z,23.00
2018-05-23T07:18:35.145Z,21.83
2018-05-23T07:21:03.408Z,21.73
2018-05-23T07:23:32.096Z,25.23
2018-05-23T07:25:59.665Z,22.10
2018-05-23T07:28:27.109Z,23.80
2018-05-23T07:30:54.676Z,22.60
2018-05-23T07:33:22.960Z,22.70
2018-05-23T07:35:51.332Z,23.57
2018-05-23T07:38:29.723Z,21.30
2018-05-23T07:40:57.904Z,24.30
2018-05-23T07:43:25.392Z,21.13
2018-05-23T07:45:52.960Z,20.47
2018-05-23T07:48:21.233Z,21.57
2018-05-23T07:50:48.735Z,18.73
2018-05-23T07:53:16.305Z,18.77
2018-05-23T07:55:43.793Z,20.60
2018-05-23T07:58:12.056Z,18.97
2018-05-23T08:00:40.317Z,19.70
2018-05-23T08:03:07.909Z,16.97
2018-05-23T08:05:35.471Z,15.53
2018-05-23T08:08:03.709Z,15.40
2018-05-23T08:10:31.601Z,17.30
2018-05-23T08:12:59.868Z,15.73
2018-05-23T08:15:28.152Z,16.27
2018-05-23T08:17:56.439Z,15.90
2018-05-23T08:20:24.739Z,14.83
2018-05-23T08:22:52.295Z,15.83
2018-05-23T08:25:19.793Z,15.93
2018-05-23T08:27:47.343Z,15.50
2018-05-23T08:30:14.820Z,11.70
2018-05-23T08:32:42.308Z,13.47
2018-05-23T08:35:09.853Z,11.97
2018-05-23T08:37:38.141Z,11.43
2018-05-23T08:40:05.649Z,10.30
2018-05-23T08:42:33.248Z,9.73
2018-05-23T08:45:01.521Z,12.03
2018-05-23T08:47:29.914Z,11.90
2018-05-23T08:49:58.245Z,16.17
2018-05-23T08:52:25.844Z,12.50
2018-05-23T08:54:54.113Z,13.50
2018-05-23T08:57:22.364Z,14.60
2018-05-23T08:59:49.876Z,11.13
2018-05-23T09:02:17.471Z,9.70
2018-05-23T09:04:44.971Z,9.90
2018-05-23T09:07:13.222Z,9.87
2018-05-23T09:09:40.742Z,9.50
2018-05-23T09:12:08.283Z,9.30
2018-05-23T09:14:36.514Z,8.77
2018-05-23T09:17:04.788Z,9.17
2018-05-23T09:19:33.108Z,8.60
2018-05-23T09:22:00.598Z,9.33
2018-05-23T09:24:29.124Z,8.30
2018-05-23T09:26:57.369Z,8.40
2018-05-23T09:29:24.863Z,8.43
2018-05-23T09:31:52.401Z,8.50
2018-05-23T09:34:20.783Z,8.13
2018-05-23T09:36:49.041Z,8.90
2018-05-23T09:39:16.589Z,6.43
2018-05-23T09:41:45.065Z,5.90
2018-05-23T09:44:13.271Z,5.57
2018-05-23T09:46:41.621Z,6.30
2018-05-23T09:49:09.110Z,6.20
2018-05-23T09:51:48.176Z,6.10
2018-05-23T09:54:15.744Z,5.83
2018-05-23T09:56:44.074Z,6.30
2018-05-23T09:59:12.334Z,6.37
2018-05-23T10:01:40.688Z,5.57
2018-05-23T10:04:08.176Z,6.23
2018-05-23T10:06:36.443Z,6.80
2018-05-23T10:09:05.645Z,5.70
2018-05-23T10:11:33.936Z,6.27
2018-05-23T10:14:01.464Z,5.50
2018-05-23T10:16:28.954Z,5.90
2018-05-23T10:18:56.908Z,6.80
2018-05-23T10:21:25.189Z,6.00
2018-05-23T10:23:53.442Z,6.10
2018-05-23T10:26:20.944Z,6.03
2018-05-23T10:28:48.433Z,7.33
2018-05-23T10:31:16.848Z,5.87
2018-05-23T10:33:44.321Z,6.03
2018-05-23T10:36:12.596Z,6.07
2018-05-23T10:38:40.909Z,6.60
2018-05-23T10:41:08.392Z,6.20
2018-05-23T10:43:35.933Z,7.13
2018-05-23T10:46:03.551Z,6.90
2018-05-23T10:48:31.925Z,7.10
2018-05-23T10:51:00.313Z,7.40
2018-05-23T10:53:28.672Z,6.90
2018-05-23T10:55:56.243Z,6.70
2018-05-23T10:58:24.727Z,6.43
2018-05-23T11:00:53.032Z,6.90
2018-05-23T11:03:20.564Z,6.50
2018-05-23T11:05:48.896Z,6.77
2018-05-23T11:08:17.110Z,7.83
2018-05-23T11:10:45.409Z,7.40
2018-05-23T11:13:12.926Z,7.10
2018-05-23T11:15:41.485Z,6.67
2018-05-23T11:18:09.042Z,6.77
2018-05-23T11:20:36.540Z,7.20
2018-05-23T11:23:04.836Z,7.73
2018-05-23T11:25:32.384Z,7.17
2018-05-23T11:28:00.652Z,7.47
2018-05-23T11:30:28.933Z,7.47
2018-05-23T11:32:57.204Z,8.30
2018-05-23T11:35:26.204Z,7.43
2018-05-23T11:37:54.482Z,7.30
2018-05-23T11:40:22.819Z,6.50
2018-05-23T11:42:50.324Z,7.70
2018-05-23T11:45:18.600Z,7.60
2018-05-23T11:47:47.641Z,7.50
2018-05-23T11:50:15.219Z,7.67
2018-05-23T11:52:42.708Z,8.17
2018-05-23T11:55:10.222Z,7.47
2018-05-23T11:57:37.704Z,7.93
2018-05-23T12:00:05.962Z,7.53
2018-05-23T12:02:33.488Z,7.70
2018-05-23T12:05:01.004Z,8.73
2018-05-23T12:07:29.312Z,7.43
2018-05-23T12:09:57.698Z,7.87
2018-05-23T12:12:25.200Z,7.73
2018-05-23T12:14:57.228Z,8.07
2018-05-23T12:17:24.759Z,7.50
2018-05-23T12:19:52.291Z,7.90
2018-05-23T12:22:20.567Z,7.60
2018-05-23T12:24:48.985Z,7.90
2018-05-23T12:27:17.400Z,9.30
2018-05-23T12:29:44.896Z,8.10
2018-05-23T12:32:13.147Z,8.40
2018-05-23T12:34:40.657Z,8.57
2018-05-23T12:37:08.180Z,7.60
2018-05-23T12:39:36.560Z,7.60
2018-05-23T12:42:04.933Z,9.90
2018-05-23T12:44:33.320Z,9.20
2018-05-23T12:47:01.638Z,8.90
2018-05-23T12:49:29.156Z,8.20
2018-05-23T12:51:57.428Z,9.43
2018-05-23T12:54:25.697Z,8.90
2018-05-23T12:56:54.041Z,7.90
2018-05-23T12:59:21.537Z,8.93
2018-05-23T13:01:50.129Z,8.90
2018-05-23T13:04:19.693Z,9.00
2018-05-23T13:06:47.191Z,8.33
2018-05-23T13:09:15.556Z,8.20
2018-05-23T13:11:43.848Z,9.47
2018-05-23T13:14:11.397Z,9.60
2018-05-23T13:16:39.673Z,9.00
2018-05-23T13:19:07.996Z,8.73
2018-05-23T13:21:36.402Z,9.37
2018-05-23T13:24:04.709Z,8.93
2018-05-23T13:26:32.987Z,10.20
2018-05-23T13:29:01.512Z,9.70
2018-05-23T13:31:29.084Z,8.97
2018-05-23T13:33:56.634Z,9.00
2018-05-23T13:36:24.125Z,9.40
2018-05-23T13:38:51.669Z,8.80
2018-05-23T13:41:19.144Z,9.87
2018-05-23T13:43:46.635Z,8.67
2018-05-23T13:46:14.170Z,8.13
2018-05-23T13:48:42.436Z,8.90
2018-05-23T13:51:10.026Z,8.27
2018-05-23T13:53:37.658Z,8.80
2018-05-23T13:56:05.258Z,8.80
2018-05-23T13:58:32.750Z,8.80
2018-05-23T14:01:01.845Z,9.03
2018-05-23T14:03:29.441Z,8.13
2018-05-23T14:05:57.749Z,9.07
2018-05-23T14:08:25.276Z,9.97
2018-05-23T14:10:53.665Z,9.00
2018-05-23T14:13:21.162Z,9.33
2018-05-23T14:15:48.760Z,11.00
2018-05-23T14:18:17.061Z,10.17
2018-05-23T14:20:44.578Z,9.70
2018-05-23T14:23:12.072Z,9.43
2018-05-23T14:25:39.566Z,9.90
2018-05-23T14:28:07.072Z,9.00
2018-05-23T14:30:35.334Z,9.57
2018-05-23T14:33:02.876Z,8.87
2018-05-23T14:35:30.425Z,10.03
2018-05-23T14:37:58.025Z,11.37
2018-05-23T14:40:26.322Z,10.20
2018-05-23T14:42:53.834Z,10.50
2018-05-23T14:45:21.413Z,11.50
2018-05-23T14:47:50.205Z,10.57
2018-05-23T14:50:17.682Z,9.90
2018-05-23T14:52:45.974Z,10.00
2018-05-23T14:55:13.500Z,10.67
2018-05-23T14:57:40.973Z,11.10
2018-05-23T15:00:08.468Z,10.10
2018-05-23T15:02:35.972Z,10.97
2018-05-23T15:05:04.237Z,10.10
2018-05-23T15:07:32.494Z,10.60
2018-05-23T15:09:59.990Z,10.90
2018-05-23T15:12:28.360Z,11.43
2018-05-23T15:14:56.645Z,11.80
2018-05-23T15:17:24.175Z,10.60
2018-05-23T15:19:51.755Z,9.93
2018-05-23T15:22:19.314Z,11.37
2018-05-23T15:24:47.580Z,9.90
2018-05-23T15:27:15.874Z,10.70
2018-05-23T15:29:43.355Z,11.07
2018-05-23T15:32:10.861Z,8.80
2018-05-23T15:34:38.449Z,10.90
2018-05-23T15:37:05.937Z,9.90
2018-05-23T15:39:33.433Z,9.90
2018-05-23T15:42:00.925Z,8.87
2018-05-23T15:44:28.471Z,9.60
2018-05-23T15:46:56.735Z,9.60
2018-05-23T15:49:24.316Z,9.73
2018-05-23T15:51:51.853Z,10.47
2018-05-23T15:54:19.393Z,10.47
2018-05-23T15:56:46.940Z,9.63
2018-05-23T15:59:14.540Z,10.10
2018-05-23T16:01:42.985Z,9.90
2018-05-23T16:04:10.597Z,10.00
2018-05-23T16:06:38.592Z,10.80
2018-05-23T16:09:06.083Z,11.00
2018-05-23T16:11:33.588Z,10.60
2018-05-23T16:14:01.232Z,9.97
2018-05-23T16:16:29.505Z,10.27
2018-05-23T16:18:57.995Z,10.30
2018-05-23T16:21:25.989Z,10.73
2018-05-23T16:23:53.474Z,10.13
2018-05-23T16:26:30.912Z,9.80
2018-05-23T16:29:00.007Z,9.80
2018-05-23T16:31:28.351Z,11.30
2018-05-23T16:33:55.888Z,9.57
2018-05-23T16:36:23.392Z,10.67
2018-05-23T16:38:51.654Z,10.57
2018-05-23T16:41:19.152Z,14.43
2018-05-23T16:43:46.664Z,9.53
2018-05-23T16:46:14.208Z,10.00
2018-05-23T16:48:41.828Z,10.20
2018-05-23T16:51:09.987Z,9.20
2018-05-23T16:53:37.480Z,10.40
2018-05-23T16:56:05.023Z,9.90
2018-05-23T16:58:32.705Z,9.07
2018-05-23T17:01:00.191Z,9.87
2018-05-23T17:03:27.727Z,8.93
2018-05-23T17:05:55.526Z,8.63
2018-05-23T17:08:23.824Z,9.07
2018-05-23T17:10:52.087Z,9.03
2018-05-23T17:13:20.351Z,9.30
2018-05-23T17:15:48.885Z,8.77
2018-05-23T17:18:16.546Z,8.93
2018-05-23T17:20:44.934Z,8.90
2018-05-23T17:23:13.597Z,8.37
2018-05-23T17:25:41.337Z,8.57
2018-05-23T17:28:08.985Z,9.03
2018-05-23T17:30:37.249Z,9.20
2018-05-23T17:33:04.768Z,9.03
2018-05-23T17:35:32.328Z,9.17
2018-05-23T17:38:00.403Z,12.10
2018-05-23T17:40:28.077Z,9.83
2018-05-23T17:42:55.573Z,8.50
2018-05-23T17:45:23.879Z,8.73
2018-05-23T17:47:51.793Z,8.53
2018-05-23T17:50:19.531Z,8.20
2018-05-23T17:52:47.037Z,8.80
2018-05-23T17:55:15.344Z,8.20
2018-05-23T17:57:42.830Z,7.53
2018-05-23T18:00:10.363Z,7.13
2018-05-23T18:02:48.503Z,7.10
2018-05-23T18:05:16.078Z,6.83
2018-05-23T18:07:43.633Z,7.47
2018-05-23T18:10:11.903Z,7.90
2018-05-23T18:12:39.591Z,7.00
2018-05-23T18:15:07.878Z,6.87
2018-05-23T18:17:35.451Z,7.53
2018-05-23T18:20:02.929Z,6.70
2018-05-23T18:22:30.546Z,6.90
2018-05-23T18:24:58.044Z,6.60
2018-05-23T18:27:25.561Z,6.50
2018-05-23T18:29:53.135Z,7.37
2018-05-23T18:32:20.619Z,6.20
2018-05-23T18:34:48.496Z,6.13
2018-05-23T18:37:16.030Z,6.60
2018-05-23T18:39:43.640Z,5.33
2018-05-23T18:42:11.158Z,6.20
2018-05-23T18:44:38.678Z,6.30
2018-05-23T18:47:06.990Z,5.73
2018-05-23T18:49:34.620Z,6.03
2018-05-23T18:52:02.135Z,5.90
2018-05-23T18:54:29.717Z,6.20
2018-05-23T18:56:57.884Z,5.87
2018-05-23T18:59:26.141Z,5.20
2018-05-23T19:01:53.653Z,5.37
2018-05-23T19:04:21.171Z,6.20
2018-05-23T19:06:48.689Z,6.20
2018-05-23T19:09:16.197Z,5.83
2018-05-23T19:11:44.513Z,5.33
2018-05-23T19:14:12.018Z,5.40
2018-05-23T19:16:39.593Z,6.20
2018-05-23T19:19:07.862Z,5.60
2018-05-23T19:21:35.365Z,6.03
2018-05-23T19:24:02.899Z,5.83
2018-05-23T19:26:31.157Z,5.83
2018-05-23T19:28:59.441Z,5.40
2018-05-23T19:31:27.833Z,5.53
2018-05-23T19:33:56.135Z,5.10
2018-05-23T19:36:23.611Z,6.33
2018-05-23T19:38:51.125Z,5.40
2018-05-23T19:41:19.931Z,5.00
2018-05-23T19:43:47.346Z,5.60
2018-05-23T19:46:14.846Z,6.10
2018-05-23T19:48:42.360Z,5.13
2018-05-23T19:51:10.633Z,5.93
2018-05-23T19:53:39.009Z,6.30
2018-05-23T19:56:06.517Z,6.67
2018-05-23T19:58:34.003Z,6.07
2018-05-23T20:01:01.545Z,5.80
2018-05-23T20:03:29.165Z,5.47
2018-05-23T20:05:58.051Z,5.73
2018-05-23T20:08:26.338Z,5.80
2018-05-23T20:10:53.841Z,6.63
2018-05-23T20:13:21.375Z,5.20
2018-05-23T20:15:48.887Z,5.27
2018-05-23T20:18:17.173Z,5.10
2018-05-23T20:20:45.560Z,6.07
2018-05-23T20:23:13.085Z,6.17
2018-05-23T20:25:40.577Z,6.20
2018-05-23T20:28:08.855Z,6.37
2018-05-23T20:30:37.017Z,6.20
2018-05-23T20:33:05.345Z,5.57
2018-05-23T20:35:33.047Z,6.03
2018-05-23T20:38:00.443Z,5.60
2018-05-23T20:40:27.973Z,6.07
2018-05-23T20:42:56.288Z,6.10
2018-05-23T20:45:23.885Z,5.70
2018-05-23T20:47:51.476Z,6.50
2018-05-23T20:50:18.976Z,6.43
2018-05-23T20:52:46.488Z,6.00
2018-05-23T20:55:15.576Z,5.77
2018-05-23T20:57:43.892Z,6.13
2018-05-23T21:00:11.480Z,5.63
2018-05-23T21:02:39.819Z,5.67
2018-05-23T21:05:07.376Z,5.63
2018-05-23T21:07:34.900Z,5.03
2018-05-23T21:10:03.196Z,6.03
2018-05-23T21:12:31.432Z,5.53
2018-05-23T21:14:58.969Z,5.80
2018-05-23T21:17:26.460Z,6.30
2018-05-23T21:19:53.984Z,5.87
2018-05-23T21:22:21.484Z,5.50
2018-05-23T21:24:50.068Z,5.03
2018-05-23T21:27:18.356Z,5.07
2018-05-23T21:29:45.873Z,6.17
2018-05-23T21:32:13.418Z,5.20
2018-05-23T21:34:40.925Z,5.40
2018-05-23T21:37:09.215Z,5.30
2018-05-23T21:39:36.756Z,5.97
2018-05-23T21:42:05.017Z,5.37
2018-05-23T21:44:32.490Z,4.83
2018-05-23T21:47:00.856Z,5.70
2018-05-23T21:49:29.534Z,8.50
2018-05-23T21:51:57.094Z,5.00
2018-05-23T21:54:24.949Z,5.60
2018-05-23T21:56:54.047Z,5.70
2018-05-23T21:59:22.010Z,4.80
2018-05-23T22:01:49.545Z,5.10
2018-05-23T22:04:17.056Z,5.00
2018-05-23T22:06:45.321Z,4.87
2018-05-23T22:09:13.612Z,5.70
2018-05-23T22:11:41.897Z,4.97
2018-05-23T22:14:09.749Z,5.40
2018-05-23T22:16:38.040Z,5.10
2018-05-23T22:19:06.295Z,4.93
2018-05-23T22:21:34.561Z,6.10
2018-05-23T22:24:02.052Z,4.83
2018-05-23T22:26:30.311Z,5.53
2018-05-23T22:28:58.566Z,4.73
2018-05-23T22:31:26.175Z,5.00
2018-05-23T22:33:53.671Z,4.93
2018-05-23T22:36:22.286Z,5.37
2018-05-23T22:38:50.552Z,5.50
2018-05-23T22:41:18.822Z,7.43
2018-05-23T22:43:46.356Z,5.40
2018-05-23T22:46:13.946Z,6.20
2018-05-23T22:48:41.441Z,6.77
2018-05-23T22:51:08.932Z,5.70
2018-05-23T22:53:36.546Z,5.60
2018-05-23T22:56:04.840Z,5.50
2018-05-23T22:58:32.342Z,7.17
2018-05-23T23:00:59.833Z,5.37
2018-05-23T23:03:28.107Z,6.03
2018-05-23T23:05:55.597Z,5.77
2018-05-23T23:08:23.113Z,5.80
2018-05-23T23:10:51.403Z,5.10
2018-05-23T23:13:33.985Z,5.60
2018-05-23T23:16:01.558Z,4.97
2018-05-23T23:18:29.805Z,5.63
2018-05-23T23:20:57.313Z,5.00
2018-05-23T23:23:24.828Z,5.40
2018-05-23T23:25:52.297Z,4.90
2018-05-23T23:28:20.095Z,4.80
2018-05-23T23:30:47.589Z,4.70
2018-05-23T23:33:15.093Z,5.20
2018-05-23T23:35:43.352Z,5.37
2018-05-23T23:38:10.872Z,4.70
2018-05-23T23:40:38.453Z,5.20
2018-05-23T23:43:05.983Z,5.70
2018-05-23T23:45:33.533Z,5.63
2018-05-23T23:48:01.014Z,5.10
2018-05-23T23:50:28.522Z,5.50
2018-05-23T23:52:56.775Z,5.03
2018-05-23T23:55:24.276Z,5.10
2018-05-23T23:57:51.758Z,5.00
